Time;durP1;ratioP1;P1;durP2;ratioP2;P2;SDS_P1;SDS_P2;PMS_P1;PMS_P2;Temp;Humidity;BMP_temperature;BMP_pressure;BME280_temperature;BME280_humidity;BME280_pressure;Samples;Min_cycle;Max_cycle;Signal;HPM_P1;HPM_P2
2022/12/08 00:02:13;;;;;;;0.47;0.47;;;;;;;7.08;100.00;99406.13;5129554;27;20202;-66
2022/12/08 00:10:07;;;;;;;0.50;0.50;;;;;;;7.14;100.00;99408.56;5145492;27;20203;-67
2022/12/08 00:12:34;;;;;;;0.50;0.50;;;;;;;7.16;100.00;99411.09;5149709;27;20730;-66
2022/12/08 00:15:01;;;;;;;0.40;0.40;;;;;;;7.18;100.00;99412.75;5137027;27;20209;-66
2022/12/08 00:17:27;;;;;;;0.50;0.50;;;;;;;7.11;100.00;99406.06;5143739;27;20194;-67
2022/12/08 00:19:54;;;;;;;0.57;0.57;;;;;;;7.16;100.00;99418.75;5137435;27;20202;-66
2022/12/08 00:22:21;;;;;;;0.50;0.50;;;;;;;7.07;100.00;99416.34;5130940;27;20198;-67
2022/12/08 00:24:50;;;;;;;0.77;0.77;;;;;;;7.09;100.00;99430.75;5131787;27;20193;-67
2022/12/08 00:27:18;;;;;;;0.47;0.47;;;;;;;7.13;100.00;99434.09;5145077;27;20197;-67
2022/12/08 00:29:45;;;;;;;0.60;0.60;;;;;;;7.13;100.00;99432.41;5131339;27;20250;-66
2022/12/08 00:32:12;;;;;;;0.60;0.60;;;;;;;7.14;100.00;99428.16;5131854;27;20558;-66
2022/12/08 00:34:39;;;;;;;0.50;0.50;;;;;;;7.14;100.00;99430.69;5131353;27;20267;-66
2022/12/08 00:37:05;;;;;;;0.50;0.50;;;;;;;7.17;100.00;99431.47;5131447;27;20205;-66
2022/12/08 00:39:32;;;;;;;0.80;0.80;;;;;;;7.19;100.00;99431.44;5130085;27;20680;-66
2022/12/08 00:42:14;;;;;;;0.50;0.50;;;;;;;7.18;100.00;99430.59;5131115;27;20685;-66
2022/12/08 00:44:44;;;;;;;0.40;0.40;;;;;;;7.19;100.00;99429.75;5140177;27;20314;-67
2022/12/08 00:47:12;;;;;;;0.50;0.50;;;;;;;7.11;100.00;99415.44;5143843;27;20201;-66
2022/12/08 00:49:39;;;;;;;0.60;0.60;;;;;;;7.20;100.00;99434.00;5139721;27;20198;-67
2022/12/08 00:52:06;;;;;;;0.50;0.50;;;;;;;7.20;100.00;99431.44;5132015;27;20668;-67
2022/12/08 00:54:33;;;;;;;0.50;0.50;;;;;;;7.22;100.00;99428.84;5148443;27;20246;-66
2022/12/08 00:57:00;;;;;;;0.60;0.60;;;;;;;7.20;100.00;99431.44;5129970;27;20581;-66
2022/12/08 00:59:27;;;;;;;0.60;0.60;;;;;;;7.10;100.00;99417.16;5131737;27;20194;-66
2022/12/08 01:01:55;;;;;;;0.40;0.40;;;;;;;7.14;100.00;99434.06;5135128;27;20205;-66
2022/12/08 01:04:22;;;;;;;0.90;0.90;;;;;;;7.05;100.00;99429.09;5133136;27;20197;-66
2022/12/08 01:06:49;;;;;;;0.50;0.50;;;;;;;7.05;100.00;99429.09;5132931;27;20226;-66
2022/12/08 01:09:17;;;;;;;1.37;1.37;;;;;;;7.06;100.00;99424.84;5136203;27;20676;-66
2022/12/08 01:11:45;;;;;;;0.70;0.70;;;;;;;7.08;100.00;99431.59;5146833;27;20255;-67
2022/12/08 01:14:12;;;;;;;0.50;0.50;;;;;;;7.02;100.00;99413.88;5144590;27;20214;-67
2022/12/08 01:16:40;;;;;;;0.60;0.60;;;;;;;7.13;100.00;99431.56;5133307;27;20205;-66
2022/12/08 01:19:09;;;;;;;0.50;0.50;;;;;;;7.10;100.00;99437.53;5135145;27;20197;-67
2022/12/08 01:21:36;;;;;;;0.53;0.53;;;;;;;7.13;100.00;99427.28;5138230;27;20194;-66
2022/12/08 01:24:03;;;;;;;0.70;0.70;;;;;;;7.16;100.00;99427.25;5136464;27;20204;-66
2022/12/08 01:26:30;;;;;;;0.50;0.50;;;;;;;7.11;100.00;99429.00;5140982;27;20672;-66
2022/12/08 01:28:57;;;;;;;0.70;0.70;;;;;;;7.16;100.00;99432.34;5137994;27;20194;-66
2022/12/08 01:31:24;;;;;;;0.50;0.50;;;;;;;7.20;100.00;99421.25;5136144;27;20661;-66
2022/12/08 01:33:51;;;;;;;0.60;0.60;;;;;;;7.10;100.00;99412.06;5143068;27;20210;-66
2022/12/08 01:36:22;;;;;;;0.57;0.57;;;;;;;7.22;100.00;99424.59;5146749;27;20288;-66
2022/12/08 01:38:50;;;;;;;0.50;0.50;;;;;;;7.23;100.00;99422.88;5142808;27;20672;-66
2022/12/08 01:41:19;;;;;;;0.83;0.83;;;;;;;7.23;100.00;99418.63;5136966;27;20194;-66
2022/12/08 01:43:56;;;;;;;0.40;0.40;;;;;;;7.29;100.00;99433.84;5144874;27;20201;-67
2022/12/08 01:46:24;;;;;;;0.60;0.60;;;;;;;7.29;100.00;99428.72;5135000;27;20201;-66
2022/12/08 01:48:53;;;;;;;0.60;0.60;;;;;;;7.21;100.00;99409.31;5145354;27;20201;-66
2022/12/08 01:51:21;;;;;;;0.50;0.50;;;;;;;7.32;100.00;99436.34;5136894;27;20196;-66
2022/12/08 01:53:51;;;;;;;0.77;0.77;;;;;;;7.33;100.00;99430.34;5149708;27;20586;-66
2022/12/08 01:56:25;;;;;;;0.77;0.77;;;;;;;7.22;100.00;99401.66;5136098;27;20641;-66
2022/12/08 01:58:54;;;;;;;0.83;0.83;;;;;;;7.33;100.00;99420.13;5138589;27;20190;-66
2022/12/08 02:01:21;;;;;;;0.60;0.60;;;;;;;7.34;100.00;99416.72;5133539;27;20202;-66
2022/12/08 02:03:54;;;;;;;0.50;0.50;;;;;;;7.29;100.00;99408.34;5139952;27;20580;-66
2022/12/08 02:06:22;;;;;;;0.60;0.60;;;;;;;7.38;100.00;99423.47;5140146;27;20221;-66
2022/12/08 02:08:50;;;;;;;0.90;0.90;;;;;;;7.43;100.00;99420.00;5141329;27;20254;-66
2022/12/08 02:11:17;;;;;;;0.70;0.70;;;;;;;7.43;100.00;99422.56;5153757;27;20693;-66
2022/12/08 02:13:47;;;;;;;0.67;0.67;;;;;;;7.37;100.00;99410.72;5153934;27;20254;-67
2022/12/08 02:16:25;;;;;;;1.27;1.27;;;;;;;7.44;100.00;99412.31;5137278;27;20206;-66
2022/12/08 02:19:06;;;;;;;0.50;0.50;;;;;;;7.45;100.00;99413.16;5131525;27;20201;-66
2022/12/08 02:21:41;;;;;;;0.50;0.50;;;;;;;7.44;100.00;99416.56;5132676;27;20200;-66
2022/12/08 02:24:17;;;;;;;0.60;0.60;;;;;;;7.42;100.00;99413.22;5137290;27;20576;-66
2022/12/08 02:27:18;;;;;;;0.70;0.70;;;;;;;7.44;100.00;99421.66;5144492;27;20205;-67
2022/12/08 02:30:07;;;;;;;0.70;0.70;;;;;;;7.40;100.00;99426.81;5145291;27;20197;-66
2022/12/08 02:33:09;;;;;;;0.60;0.60;;;;;;;7.34;100.00;99437.13;5132930;27;20194;-66
2022/12/08 02:35:42;;;;;;;0.50;0.50;;;;;;;7.30;100.00;99438.03;5107404;27;20213;-66
2022/12/08 02:38:15;;;;;;;0.60;0.60;;;;;;;7.19;100.00;99441.66;5134533;27;20662;-66
2022/12/08 02:40:53;;;;;;;0.60;0.60;;;;;;;7.05;100.00;99434.22;5143074;27;20202;-66
2022/12/08 02:43:26;;;;;;;0.60;0.60;;;;;;;7.06;100.00;99435.91;5142481;27;20225;-66
2022/12/08 02:45:59;;;;;;;0.77;0.77;;;;;;;7.05;100.00;99434.22;5143326;27;20250;-66
2022/12/08 02:48:27;;;;;;;0.60;0.60;;;;;;;7.01;100.00;99441.94;5152097;27;20600;-66
2022/12/08 02:50:55;;;;;;;0.50;0.50;;;;;;;7.01;100.00;99445.31;5133656;27;20577;-66
2022/12/08 02:53:22;;;;;;;0.73;0.73;;;;;;;6.99;100.00;99438.56;5128758;27;20210;-66
2022/12/08 02:55:57;;;;;;;0.80;0.80;;;;;;;6.96;100.00;99431.81;5132254;27;20213;-66
2022/12/08 02:58:46;;;;;;;0.47;0.47;;;;;;;6.99;100.00;99434.31;5139012;27;20247;-66
2022/12/08 03:01:34;;;;;;;0.70;0.70;;;;;;;6.97;100.00;99436.03;5138015;27;20681;-66
2022/12/08 03:04:08;;;;;;;0.50;0.50;;;;;;;6.99;100.00;99434.31;5140302;27;20676;-66
2022/12/08 03:06:46;;;;;;;0.50;0.50;;;;;;;6.99;100.00;99434.31;5083789;27;1348525;-66
2022/12/08 03:09:18;;;;;;;0.63;0.63;;;;;;;6.88;100.00;99422.59;5131180;27;20219;-66
2022/12/08 03:11:49;;;;;;;0.60;0.60;;;;;;;6.86;100.00;99427.72;5133476;27;20203;-66
2022/12/08 03:14:18;;;;;;;0.63;0.63;;;;;;;6.86;100.00;99414.97;5133655;27;20190;-66
2022/12/08 03:16:49;;;;;;;0.70;0.70;;;;;;;6.82;100.00;99423.50;5133103;27;20218;-66
2022/12/08 03:19:19;;;;;;;0.60;0.60;;;;;;;6.75;100.00;99419.41;5134448;27;20194;-66
2022/12/08 03:21:51;;;;;;;0.60;0.60;;;;;;;6.69;100.00;99437.28;5144433;27;20197;-66
2022/12/08 03:24:21;;;;;;;0.50;0.50;;;;;;;6.63;100.00;99420.41;5131844;27;20213;-66
2022/12/08 03:26:55;;;;;;;0.53;0.53;;;;;;;6.62;100.00;99418.72;5149665;27;20185;-66
2022/12/08 03:29:23;;;;;;;0.60;0.60;;;;;;;6.65;100.00;99420.38;5140279;27;20284;-66
2022/12/08 03:31:53;;;;;;;0.53;0.53;;;;;;;6.70;100.00;99418.59;5132847;27;20194;-66
2022/12/08 03:34:22;;;;;;;0.73;0.73;;;;;;;6.74;100.00;99423.66;5142120;27;20198;-66
2022/12/08 03:36:51;;;;;;;1.10;1.10;;;;;;;6.80;100.00;99427.81;5148593;27;20216;-66
2022/12/08 03:39:18;;;;;;;0.60;0.60;;;;;;;6.77;100.00;99432.94;5139496;27;20236;-65
2022/12/08 03:41:45;;;;;;;0.70;0.70;;;;;;;6.73;100.00;99436.38;5132058;27;20194;-66
2022/12/08 03:44:12;;;;;;;0.40;0.40;;;;;;;6.73;100.00;99436.38;5142459;27;20255;-66
2022/12/08 03:46:39;;;;;;;0.60;0.60;;;;;;;6.72;100.00;99420.25;5148254;27;20268;-66
2022/12/08 03:49:05;;;;;;;0.60;0.60;;;;;;;6.85;100.00;99431.09;5132280;27;20206;-66
2022/12/08 03:51:32;;;;;;;0.60;0.60;;;;;;;6.87;100.00;99434.50;5142100;27;20599;-66
2022/12/08 03:54:01;;;;;;;0.70;0.70;;;;;;;6.85;100.00;99426.84;5139573;27;20209;-66
2022/12/08 03:56:29;;;;;;;0.50;0.50;;;;;;;6.86;100.00;99428.56;5132381;27;20210;-66
2022/12/08 03:58:57;;;;;;;0.77;0.77;;;;;;;6.94;100.00;99435.25;5141183;27;20333;-66
2022/12/08 04:01:24;;;;;;;0.60;0.60;;;;;;;6.92;100.00;99426.75;5144660;27;20197;-66
2022/12/08 04:03:51;;;;;;;0.70;0.70;;;;;;;6.93;100.00;99421.66;5132505;27;20703;-66
2022/12/08 04:06:18;;;;;;;0.60;0.60;;;;;;;6.87;100.00;99403.91;5136187;27;20262;-66
2022/12/08 04:08:45;;;;;;;1.00;1.00;;;;;;;7.03;100.00;99430.00;5145114;27;20189;-66
2022/12/08 04:11:14;;;;;;;0.50;0.50;;;;;;;7.04;100.00;99424.06;5137511;27;20731;-66
2022/12/08 04:13:41;;;;;;;0.60;0.60;;;;;;;7.01;100.00;99417.28;5132109;27;20205;-66
2022/12/08 04:16:14;;;;;;;0.60;0.60;;;;;;;7.16;100.00;99437.44;5132207;27;20226;-66
2022/12/08 04:18:41;;;;;;;0.50;0.50;;;;;;;7.19;100.00;99431.44;5137077;27;20199;-66
2022/12/08 04:21:08;;;;;;;0.63;0.63;;;;;;;7.20;100.00;99433.13;5133204;27;20205;-66
2022/12/08 04:23:34;;;;;;;0.40;0.40;;;;;;;7.14;100.00;99416.22;5143539;27;20190;-66
2022/12/08 04:26:01;;;;;;;0.53;0.53;;;;;;;7.26;100.00;99428.78;5139648;27;20201;-66
2022/12/08 04:28:29;;;;;;;0.50;0.50;;;;;;;7.27;100.00;99430.44;5139476;27;20224;-66
2022/12/08 04:30:56;;;;;;;1.17;1.17;;;;;;;7.30;100.00;99430.38;5136542;27;20268;-66
2022/12/08 04:33:23;;;;;;;1.60;1.60;;;;;;;7.35;100.00;99440.53;5135950;27;20635;-66
2022/12/08 04:35:50;;;;;;;0.63;0.63;;;;;;;7.37;100.00;99442.19;5131620;27;20693;-66
2022/12/08 04:38:17;;;;;;;0.70;0.70;;;;;;;7.22;100.00;99409.28;5138616;27;20204;-66
2022/12/08 04:40:44;;;;;;;0.50;0.50;;;;;;;7.43;100.00;99435.31;5141903;27;20700;-66
2022/12/08 04:43:11;;;;;;;0.70;0.70;;;;;;;7.45;100.00;99444.63;5137491;27;20197;-66
2022/12/08 04:45:41;;;;;;;0.60;0.60;;;;;;;7.40;100.00;99437.03;5142799;27;20189;-66
2022/12/08 04:48:08;;;;;;;1.03;1.03;;;;;;;7.27;100.00;99425.34;5142524;27;20617;-66
2022/12/08 04:50:34;;;;;;;0.53;0.53;;;;;;;7.30;100.00;99440.59;5140990;27;20257;-66
2022/12/08 04:53:01;;;;;;;0.67;0.67;;;;;;;7.28;100.00;99431.28;5138440;27;20209;-66
2022/12/08 04:55:28;;;;;;;0.50;0.50;;;;;;;7.25;100.00;99432.19;5137352;27;20220;-65
2022/12/08 04:57:55;;;;;;;1.00;1.00;;;;;;;7.18;100.00;99420.41;5134937;27;20201;-66
2022/12/08 05:00:22;;;;;;;0.60;0.60;;;;;;;7.32;100.00;99438.88;5146464;27;20201;-66
2022/12/08 05:02:50;;;;;;;0.60;0.60;;;;;;;7.36;100.00;99449.88;5149179;27;20193;-66
2022/12/08 05:05:16;;;;;;;0.60;0.60;;;;;;;7.39;100.00;99454.91;5138649;27;20222;-66
2022/12/08 05:07:43;;;;;;;0.60;0.60;;;;;;;7.41;100.00;99458.28;5140374;27;20201;-66
2022/12/08 05:10:10;;;;;;;0.80;0.80;;;;;;;7.40;100.00;99465.06;5132874;27;20716;-66
2022/12/08 05:12:37;;;;;;;0.60;0.60;;;;;;;7.39;100.00;99455.78;5145162;27;20247;-66
2022/12/08 05:15:04;;;;;;;0.77;0.77;;;;;;;7.38;100.00;99461.72;5136227;27;20194;-65
2022/12/08 05:17:31;;;;;;;0.60;0.60;;;;;;;7.36;100.00;99471.13;5135890;27;20201;-66
2022/12/08 05:20:00;;;;;;;0.60;0.60;;;;;;;7.35;100.00;99469.44;5139353;27;20592;-66
2022/12/08 05:22:26;;;;;;;0.60;0.60;;;;;;;7.32;100.00;99461.81;5143391;27;20202;-65
2022/12/08 05:24:53;;;;;;;1.13;1.03;;;;;;;7.33;100.00;99466.03;5136378;27;20214;-66
2022/12/08 05:27:20;;;;;;;0.60;0.60;;;;;;;7.37;100.00;99465.13;5129977;27;20553;-66
2022/12/08 05:29:47;;;;;;;0.60;0.60;;;;;;;7.36;100.00;99471.13;5139306;27;20629;-66
2022/12/08 05:32:14;;;;;;;1.07;1.07;;;;;;;7.31;100.00;99467.78;5150616;27;20197;-65
2022/12/08 05:34:41;;;;;;;0.60;0.60;;;;;;;7.12;100.00;99430.69;5136527;27;20200;-67
2022/12/08 05:37:09;;;;;;;0.57;0.57;;;;;;;7.29;100.00;99469.53;5144360;27;20228;-66
2022/12/08 05:39:36;;;;;;;0.70;0.70;;;;;;;7.34;100.00;99477.94;5143104;27;20208;-66
2022/12/08 05:42:03;;;;;;;0.90;0.90;;;;;;;7.33;100.00;99478.78;5133121;27;20581;-66
2022/12/08 05:44:29;;;;;;;0.50;0.50;;;;;;;7.37;100.00;99485.53;5137270;27;20194;-66
2022/12/08 05:46:56;;;;;;;0.70;0.70;;;;;;;7.39;100.00;99490.63;5130994;27;20202;-66
2022/12/08 05:49:23;;;;;;;0.80;0.80;;;;;;;7.34;100.00;99488.13;5139410;27;20204;-67
2022/12/08 05:51:53;;;;;;;0.60;0.60;;;;;;;7.35;100.00;99484.72;5134333;27;20737;-66
2022/12/08 05:54:22;;;;;;;0.40;0.40;;;;;;;7.35;100.00;99494.09;5141975;27;20714;-66
2022/12/08 05:56:49;;;;;;;0.70;0.70;;;;;;;7.34;100.00;99490.69;5150558;27;20685;-66
2022/12/08 05:59:16;;;;;;;0.60;0.60;;;;;;;7.33;100.00;99495.81;5145933;27;20197;-66
2022/12/08 06:01:43;;;;;;;0.73;0.73;;;;;;;7.33;100.00;99496.63;5133986;27;20274;-66
2022/12/08 06:04:10;;;;;;;0.60;0.60;;;;;;;7.33;100.00;99496.63;5134879;27;20194;-66
2022/12/08 06:06:37;;;;;;;0.70;0.70;;;;;;;7.34;100.00;99498.34;5145993;27;20221;-66
2022/12/08 06:09:05;;;;;;;0.50;0.50;;;;;;;7.32;100.00;99489.03;5145028;27;20232;-66
2022/12/08 06:11:33;;;;;;;0.60;0.60;;;;;;;7.38;100.00;99494.88;5129322;27;20550;-66
2022/12/08 06:14:02;;;;;;;1.77;1.77;;;;;;;7.36;100.00;99495.78;5140233;27;20201;-66
2022/12/08 06:16:29;;;;;;;0.50;0.50;;;;;;;7.32;100.00;99486.47;5141956;27;20210;-66
2022/12/08 06:18:57;;;;;;;0.50;0.50;;;;;;;7.28;100.00;99490.78;5137456;27;20199;-66
2022/12/08 06:21:24;;;;;;;0.70;0.70;;;;;;;7.42;100.00;99505.03;5132877;27;20187;-67
2022/12/08 06:23:52;;;;;;;1.03;1.03;;;;;;;7.29;100.00;99483.97;5134308;27;20585;-66
2022/12/08 06:26:20;;;;;;;1.00;1.00;;;;;;;7.39;100.00;99506.78;5137341;27;20206;-66
2022/12/08 06:28:48;;;;;;;0.80;0.80;;;;;;;7.30;100.00;99486.50;5137227;27;20197;-66
2022/12/08 06:31:17;;;;;;;0.70;0.70;;;;;;;7.35;100.00;99505.13;5135856;27;20190;-66
2022/12/08 06:33:45;;;;;;;0.57;0.57;;;;;;;7.32;100.00;99507.72;5142703;27;20681;-66
2022/12/08 06:36:13;;;;;;;0.50;0.50;;;;;;;7.30;100.00;99517.09;5146587;27;20217;-66
2022/12/08 06:38:40;;;;;;;0.60;0.60;;;;;;;7.27;100.00;99506.94;5132070;27;20198;-66
2022/12/08 06:41:07;;;;;;;0.70;0.70;;;;;;;7.26;100.00;99507.81;5142702;27;20198;-66
2022/12/08 06:43:34;;;;;;;0.60;0.60;;;;;;;7.19;100.00;99492.63;5139710;27;20200;-66
2022/12/08 06:46:06;;;;;;;0.50;0.50;;;;;;;7.25;100.00;99507.84;5134891;27;20217;-66
2022/12/08 06:48:33;;;;;;;0.80;0.80;;;;;;;7.27;100.00;99511.22;5129208;27;20577;-65
2022/12/08 06:51:06;;;;;;;0.40;0.40;;;;;;;7.26;100.00;99520.56;5135546;27;20220;-64
2022/12/08 06:53:33;;;;;;;0.50;0.50;;;;;;;7.26;100.00;99517.19;5133446;27;20201;-65
2022/12/08 06:55:59;;;;;;;0.60;0.60;;;;;;;7.28;100.00;99523.94;5146542;27;20221;-64
2022/12/08 06:58:26;;;;;;;0.60;0.60;;;;;;;7.16;100.00;99502.88;5149891;27;20209;-64
2022/12/08 07:00:53;;;;;;;0.50;0.50;;;;;;;7.31;100.00;99523.88;5138465;27;20201;-65
2022/12/08 07:03:21;;;;;;;0.53;0.53;;;;;;;7.35;100.00;99524.69;5140244;27;20210;-64
2022/12/08 07:05:48;;;;;;;0.40;0.40;;;;;;;7.40;100.00;99528.00;5148936;27;20229;-64
2022/12/08 07:08:15;;;;;;;0.60;0.60;;;;;;;7.39;100.00;99522.06;5140326;27;20198;-65
2022/12/08 07:10:42;;;;;;;0.73;0.73;;;;;;;7.45;100.00;99522.84;5132425;27;20203;-65
2022/12/08 07:13:08;;;;;;;0.70;0.70;;;;;;;7.49;100.00;99532.13;5138409;27;20201;-66
2022/12/08 07:15:35;;;;;;;0.60;0.60;;;;;;;7.54;100.00;99535.44;5142548;27;20621;-65
2022/12/08 07:18:02;;;;;;;0.63;0.63;;;;;;;7.59;100.00;99538.78;5127777;27;20623;-66
2022/12/08 07:20:33;;;;;;;0.50;0.50;;;;;;;7.62;100.00;99538.72;5130639;27;20194;-66
2022/12/08 07:23:00;;;;;;;0.60;0.60;;;;;;;7.60;100.00;99540.44;5128678;27;20293;-66
2022/12/08 07:25:26;;;;;;;0.80;0.80;;;;;;;7.68;100.00;99538.63;5132882;27;20202;-65
2022/12/08 07:27:53;;;;;;;0.63;0.63;;;;;;;7.65;100.00;99538.66;5136809;27;20214;-65
2022/12/08 07:30:20;;;;;;;0.60;0.60;;;;;;;7.76;100.00;99555.47;5134862;27;20726;-65
2022/12/08 07:32:47;;;;;;;0.70;0.70;;;;;;;7.78;100.00;99545.25;5126029;27;20741;-65
2022/12/08 07:35:14;;;;;;;0.50;0.50;;;;;;;7.82;100.00;99554.53;5131335;27;20201;-66
2022/12/08 07:37:42;;;;;;;0.40;0.40;;;;;;;7.83;100.00;99559.63;5142527;27;20251;-66
2022/12/08 07:40:10;;;;;;;0.83;0.83;;;;;;;7.86;100.00;99568.94;5141791;27;20197;-66
2022/12/08 07:42:37;;;;;;;0.50;0.50;;;;;;;7.90;100.00;99570.56;5141825;27;20201;-67
2022/12/08 07:45:04;;;;;;;0.73;0.73;;;;;;;7.90;100.00;99570.56;5147819;27;20645;-67
2022/12/08 07:47:31;;;;;;;0.57;0.57;;;;;;;7.93;100.00;99580.72;5138152;27;20201;-67
2022/12/08 07:49:58;;;;;;;0.60;0.60;;;;;;;7.95;100.00;99576.44;5139864;27;20209;-66
2022/12/08 07:52:25;;;;;;;3.00;1.00;;;;;;;7.96;100.00;99573.03;5141178;27;20201;-67
2022/12/08 07:54:53;;;;;;;0.63;0.63;;;;;;;7.97;100.00;99567.06;5140151;27;20688;-66
2022/12/08 07:57:20;;;;;;;0.60;0.60;;;;;;;7.99;100.00;99572.97;5137391;27;20213;-67
2022/12/08 07:59:46;;;;;;;0.67;0.67;;;;;;;8.03;100.00;99572.06;5139000;27;20202;-66
2022/12/08 08:02:17;;;;;;;0.70;0.70;;;;;;;8.08;100.00;99572.81;5136808;27;20198;-65
2022/12/08 08:04:44;;;;;;;0.43;0.43;;;;;;;8.11;100.00;99572.75;5131917;27;20311;-66
2022/12/08 08:07:11;;;;;;;0.50;0.50;;;;;;;8.06;100.00;99561.78;5134381;27;20218;-66
2022/12/08 08:09:38;;;;;;;0.63;0.63;;;;;;;8.11;100.00;99577.03;5145003;27;20246;-67
2022/12/08 08:12:06;;;;;;;0.53;0.53;;;;;;;8.13;100.00;99582.94;5133856;27;20255;-66
2022/12/08 08:14:33;;;;;;;0.80;0.80;;;;;;;8.11;100.00;99588.06;5132678;27;20198;-67
2022/12/08 08:17:00;;;;;;;0.40;0.40;;;;;;;8.04;100.00;99586.50;5127147;27;20256;-66
2022/12/08 08:19:27;;;;;;;0.50;0.50;;;;;;;8.02;100.00;99589.94;5133992;27;20193;-66
2022/12/08 08:21:54;;;;;;;0.60;0.60;;;;;;;7.98;100.00;99586.59;5136627;27;20664;-67
2022/12/08 08:24:22;;;;;;;0.87;0.87;;;;;;;8.03;100.00;99586.53;5141268;27;20193;-67
2022/12/08 08:26:49;;;;;;;0.60;0.60;;;;;;;8.05;100.00;99590.72;5130082;27;20281;-66
2022/12/08 08:29:18;;;;;;;0.87;0.87;;;;;;;8.07;100.00;99578.78;5138149;27;20201;-66
2022/12/08 08:31:44;;;;;;;0.70;0.70;;;;;;;8.08;100.00;99580.47;5135215;27;20205;-66
2022/12/08 08:34:11;;;;;;;0.63;0.63;;;;;;;8.13;100.00;99578.69;5126664;27;20539;-65
2022/12/08 08:36:38;;;;;;;0.40;0.40;;;;;;;8.19;100.00;99577.72;5129594;27;20218;-65
2022/12/08 08:39:05;;;;;;;1.03;1.03;;;;;;;8.21;100.00;99581.94;5127697;27;20201;-65
2022/12/08 08:41:34;;;;;;;0.77;0.77;;;;;;;8.24;100.00;99576.75;5127140;27;20206;-64
2022/12/08 08:44:03;;;;;;;0.80;0.80;;;;;;;8.27;100.00;99579.25;5145347;27;20232;-65
2022/12/08 08:46:31;;;;;;;0.90;0.90;;;;;;;8.33;100.00;99571.56;5139819;27;20197;-65
2022/12/08 08:48:58;;;;;;;0.60;0.60;;;;;;;8.39;100.00;99562.91;5142570;27;20293;-65
2022/12/08 08:51:25;;;;;;;0.57;0.57;;;;;;;8.47;100.00;99562.75;5137617;27;20604;-66
2022/12/08 08:53:52;;;;;;;0.67;0.67;;;;;;;8.56;100.00;99572.81;5144221;27;20568;-65
2022/12/08 08:56:19;;;;;;;0.70;0.70;;;;;;;8.59;100.00;99560.84;5139702;27;21051;-66
2022/12/08 08:58:47;;;;;;;0.50;0.50;;;;;;;8.68;100.00;99558.09;5146132;27;20198;-66
2022/12/08 09:01:16;;;;;;;0.60;0.60;;;;;;;8.73;100.00;99550.31;5142634;27;20190;-66
2022/12/08 09:03:44;;;;;;;0.90;0.90;;;;;;;8.73;100.00;99546.06;5135939;27;20198;-65
2022/12/08 09:06:12;;;;;;;1.30;1.30;;;;;;;8.78;100.00;99549.38;5130459;27;20316;-69
2022/12/08 09:08:38;;;;;;;0.70;0.70;;;;;;;8.84;100.00;99538.16;5132469;27;20206;-66
2022/12/08 09:11:05;;;;;;;0.60;0.60;;;;;;;8.96;100.00;99548.13;5137989;27;20202;-66
2022/12/08 09:13:33;;;;;;;0.60;0.60;;;;;;;9.03;100.00;99549.69;5144244;27;20194;-66
2022/12/08 09:16:01;;;;;;;0.57;0.57;;;;;;;9.08;100.00;99552.97;5136471;27;20205;-67
2022/12/08 09:18:28;;;;;;;0.65;0.65;;;;;;;9.07;100.00;99550.47;5134594;27;20932;-67
2022/12/08 09:20:56;;;;;;;0.60;0.60;;;;;;;9.09;100.00;99549.56;5128794;27;20425;-66
2022/12/08 09:23:26;;;;;;;0.50;0.50;;;;;;;9.10;100.00;99546.13;5132141;27;20595;-66
2022/12/08 09:25:53;;;;;;;0.50;0.50;;;;;;;9.03;100.00;99525.81;5129397;27;20662;-66
2022/12/08 09:28:20;;;;;;;0.87;0.87;;;;;;;9.13;100.00;99538.38;5138016;27;20193;-66
2022/12/08 09:30:46;;;;;;;0.57;0.57;;;;;;;9.11;100.00;99532.44;5137946;27;20205;-66
2022/12/08 09:33:13;;;;;;;0.57;0.57;;;;;;;9.11;100.00;99517.09;5146469;27;20197;-67
2022/12/08 09:35:40;;;;;;;0.50;0.50;;;;;;;9.21;100.00;99528.81;5140235;27;20206;-67
2022/12/08 09:38:08;;;;;;;0.57;0.57;;;;;;;9.23;100.00;99526.22;5137061;27;20210;-66
2022/12/08 09:40:41;;;;;;;0.40;0.40;;;;;;;9.32;100.00;99518.34;5145989;27;20245;-67
2022/12/08 09:43:21;;;;;;;0.50;0.50;;;;;;;9.34;100.00;99519.97;5146781;27;20197;-67
2022/12/08 09:45:50;;;;;;;0.60;0.60;;;;;;;9.30;100.00;99523.50;5153592;27;20197;-66
2022/12/08 09:48:19;;;;;;;0.60;0.60;;;;;;;9.22;100.00;99520.28;5155877;27;20194;-66
2022/12/08 09:50:51;;;;;;;0.60;0.60;;;;;;;9.19;100.00;99519.50;5155710;27;20249;-66
2022/12/08 09:53:24;;;;;;;0.50;0.50;;;;;;;9.27;100.00;99520.19;5134071;27;20251;-66
2022/12/08 09:55:55;;;;;;;0.40;0.40;;;;;;;9.26;100.00;99511.66;5134046;27;20190;-66
2022/12/08 09:58:31;;;;;;;0.63;0.63;;;;;;;9.26;100.00;99506.53;5133635;27;20682;-65
2022/12/08 10:00:58;;;;;;;0.47;0.47;;;;;;;9.34;100.00;99511.47;5136368;27;20205;-66
2022/12/08 10:03:28;;;;;;;0.60;0.60;;;;;;;9.36;100.00;99502.91;5142140;27;20209;-66
2022/12/08 10:06:05;;;;;;;0.50;0.50;;;;;;;9.39;100.00;99505.38;5143301;27;20225;-66
2022/12/08 10:08:43;;;;;;;0.77;0.47;;;;;;;9.37;100.00;99499.44;5135036;27;20194;-66
2022/12/08 10:11:13;;;;;;;0.60;0.60;;;;;;;9.49;100.00;99508.56;5145591;27;20201;-66
2022/12/08 10:13:48;;;;;;;0.40;0.40;;;;;;;9.41;100.00;99506.16;5155377;27;20193;-66
2022/12/08 10:16:22;;;;;;;0.60;0.60;;;;;;;9.33;100.00;99497.84;5146823;27;20625;-66
2022/12/08 10:18:56;;;;;;;0.70;0.70;;;;;;;9.35;100.00;99505.47;5146781;27;20192;-66
2022/12/08 10:21:26;;;;;;;1.30;1.30;;;;;;;9.34;100.00;99496.97;5143070;27;20190;-66
2022/12/08 10:24:00;;;;;;;0.50;0.50;;;;;;;9.37;100.00;99489.22;5134564;27;20210;-66
2022/12/08 10:26:27;;;;;;;1.27;1.27;;;;;;;9.49;100.00;99499.16;5134784;27;20198;-66
2022/12/08 10:28:59;;;;;;;0.77;0.77;;;;;;;9.50;100.00;99490.59;5133905;27;20605;-67
2022/12/08 10:31:27;;;;;;;0.50;0.50;;;;;;;9.56;100.00;99488.78;5134687;27;20209;-66
2022/12/08 10:33:58;;;;;;;0.57;0.57;;;;;;;9.59;100.00;99488.69;5154712;27;20197;-66
2022/12/08 10:36:42;;;;;;;0.40;0.40;;;;;;;9.64;100.00;99497.09;5138006;27;20297;-65
2022/12/08 10:39:31;;;;;;;0.70;0.70;;;;;;;9.61;100.00;99484.38;5146214;27;20577;-65
2022/12/08 10:42:01;;;;;;;0.40;0.40;;;;;;;9.57;100.00;99464.84;5147364;27;20202;-66
2022/12/08 10:44:28;;;;;;;0.60;0.60;;;;;;;9.59;100.00;99479.31;5154135;27;20262;-66
2022/12/08 10:46:55;;;;;;;0.50;0.50;;;;;;;9.67;100.00;99476.53;5139434;27;20190;-65
2022/12/08 10:49:27;;;;;;;1.33;1.33;;;;;;;9.65;100.00;99474.03;5134537;27;20214;-65
2022/12/08 10:51:54;;;;;;;0.53;0.53;;;;;;;9.70;100.00;99479.03;5137287;27;20324;-66
2022/12/08 10:54:32;;;;;;;0.60;0.60;;;;;;;9.76;100.00;99478.84;5145065;27;20194;-67
2022/12/08 10:56:59;;;;;;;0.60;0.60;;;;;;;9.76;100.00;99473.75;5148532;27;20208;-66
2022/12/08 10:59:26;;;;;;;0.40;0.40;;;;;;;9.83;100.00;99477.81;5146179;27;20197;-68
2022/12/08 11:01:54;;;;;;;0.50;0.50;;;;;;;9.87;100.00;99470.03;5149057;27;20205;-66
2022/12/08 11:04:24;;;;;;;1.25;1.25;;;;;;;9.94;100.00;99468.16;5130245;27;21013;-66
2022/12/08 11:06:52;;;;;;;0.75;0.75;;;;;;;10.04;100.00;99464.47;5131402;27;20524;-67
2022/12/08 11:09:26;;;;;;;0.50;0.50;;;;;;;10.16;100.00;99456.47;5139169;27;20205;-65
2022/12/08 11:11:57;;;;;;;1.23;1.23;;;;;;;10.24;100.00;99458.84;5136190;27;20217;-65
2022/12/08 11:14:26;;;;;;;0.50;0.50;;;;;;;10.26;100.00;99468.16;5131861;27;20205;-64
2022/12/08 11:16:55;;;;;;;2.97;1.00;;;;;;;10.25;100.00;99451.09;5131711;27;20202;-63
2022/12/08 11:19:26;;;;;;;0.90;0.90;;;;;;;10.26;100.00;99445.09;5135499;27;20689;-68
2022/12/08 11:21:53;;;;;;;0.50;0.50;;;;;;;10.32;100.00;99450.06;5136703;27;20267;-66
2022/12/08 11:24:26;;;;;;;0.60;0.60;;;;;;;10.34;100.00;99444.91;5146137;27;20201;-66
2022/12/08 11:26:59;;;;;;;0.70;0.70;;;;;;;10.28;100.00;99447.59;5136947;27;20194;-66
2022/12/08 11:29:27;;;;;;;3.23;1.33;;;;;;;10.14;100.00;99453.13;5140629;27;20257;-65
2022/12/08 11:31:59;;;;;;;0.53;0.53;;;;;;;10.15;100.00;99444.53;5139395;27;20201;-65
2022/12/08 11:34:33;;;;;;;0.57;0.57;;;;;;;10.07;100.00;99423.41;5132587;27;20205;-65
2022/12/08 11:37:02;;;;;;;1.17;0.90;;;;;;;10.21;100.00;99444.38;5134001;27;20255;-66
2022/12/08 11:39:32;;;;;;;0.63;0.63;;;;;;;10.30;100.00;99438.16;5130115;27;20216;-63
2022/12/08 11:42:04;;;;;;;0.80;0.80;;;;;;;10.34;100.00;99438.03;5125846;27;20214;-65
2022/12/08 11:44:37;;;;;;;0.50;0.50;;;;;;;10.39;100.00;99438.75;5141050;27;20658;-66
2022/12/08 11:47:12;;;;;;;0.53;0.53;;;;;;;10.39;100.00;99437.91;5143716;27;20297;-65